sensor_id;sensor_type;location;lat;lon;timestamp;P1;durP1;ratioP1;P2;durP2;ratioP2
62010;SDS011;47967;51.756;10.174;2023-01-29T05:04:27;18.23;;;8.43;;
62010;SDS011;47967;51.756;10.174;2023-01-29T05:08:32;18.65;;;8.55;;
62010;SDS011;47967;51.756;10.174;2023-01-29T05:12:37;13.77;;;8.18;;
62010;SDS011;47967;51.756;10.174;2023-01-29T05:16:42;20.33;;;8.50;;
62010;SDS011;47967;51.756;10.174;2023-01-29T05:20:48;14.68;;;7.80;;
62010;SDS011;47967;51.756;10.174;2023-01-29T05:24:51;18.08;;;8.18;;
62010;SDS011;47967;51.756;10.174;2023-01-29T05:28:54;16.20;;;8.30;;
62010;SDS011;47967;51.756;10.174;2023-01-29T05:32:56;16.95;;;8.18;;
62010;SDS011;47967;51.756;10.174;2023-01-29T05:37:00;19.65;;;8.43;;
62010;SDS011;47967;51.756;10.174;2023-01-29T05:41:03;17.48;;;9.00;;
62010;SDS011;47967;51.756;10.174;2023-01-29T05:45:11;19.40;;;9.57;;
62010;SDS011;47967;51.756;10.174;2023-01-29T05:49:15;18.70;;;8.68;;
62010;SDS011;47967;51.756;10.174;2023-01-29T05:53:19;19.20;;;9.05;;
62010;SDS011;47967;51.756;10.174;2023-01-29T05:57:21;18.25;;;8.00;;
62010;SDS011;47967;51.756;10.174;2023-01-29T06:01:24;17.00;;;8.90;;
62010;SDS011;47967;51.756;10.174;2023-01-29T06:05:27;17.05;;;8.90;;
62010;SDS011;47967;51.756;10.174;2023-01-29T06:09:31;19.60;;;9.50;;
62010;SDS011;47967;51.756;10.174;2023-01-29T06:13:34;15.98;;;8.95;;
62010;SDS011;47967;51.756;10.174;2023-01-29T06:17:36;18.45;;;9.23;;
62010;SDS011;47967;51.756;10.174;2023-01-29T06:21:39;19.80;;;10.57;;
62010;SDS011;47967;51.756;10.174;2023-01-29T06:25:43;20.07;;;10.63;;
62010;SDS011;47967;51.756;10.174;2023-01-29T06:29:45;21.33;;;10.02;;
62010;SDS011;47967;51.756;10.174;2023-01-29T06:33:48;20.48;;;9.88;;
62010;SDS011;47967;51.756;10.174;2023-01-29T06:37:50;19.85;;;10.75;;
62010;SDS011;47967;51.756;10.174;2023-01-29T06:41:54;17.90;;;9.37;;
62010;SDS011;47967;51.756;10.174;2023-01-29T06:45:57;18.75;;;9.90;;
62010;SDS011;47967;51.756;10.174;2023-01-29T06:49:59;22.35;;;9.88;;
62010;SDS011;47967;51.756;10.174;2023-01-29T06:54:02;21.75;;;10.13;;
62010;SDS011;47967;51.756;10.174;2023-01-29T06:58:08;22.40;;;9.82;;
62010;SDS011;47967;51.756;10.174;2023-01-29T07:02:12;18.60;;;9.70;;
62010;SDS011;47967;51.756;10.174;2023-01-29T07:06:15;21.05;;;9.93;;
62010;SDS011;47967;51.756;10.174;2023-01-29T07:10:17;19.83;;;9.68;;
62010;SDS011;47967;51.756;10.174;2023-01-29T07:14:21;20.67;;;10.27;;
62010;SDS011;47967;51.756;10.174;2023-01-29T07:18:24;19.17;;;9.90;;
62010;SDS011;47967;51.756;10.174;2023-01-29T07:22:26;20.33;;;10.88;;
62010;SDS011;47967;51.756;10.174;2023-01-29T07:26:29;21.97;;;10.50;;
62010;SDS011;47967;51.756;10.174;2023-01-29T07:30:33;23.20;;;10.93;;
62010;SDS011;47967;51.756;10.174;2023-01-29T07:34:36;20.17;;;9.40;;
62010;SDS011;47967;51.756;10.174;2023-01-29T07:38:38;20.77;;;10.97;;
62010;SDS011;47967;51.756;10.174;2023-01-29T07:42:41;22.83;;;10.77;;
62010;SDS011;47967;51.756;10.174;2023-01-29T07:46:45;21.23;;;10.75;;
62010;SDS011;47967;51.756;10.174;2023-01-29T07:50:52;22.90;;;11.13;;
62010;SDS011;47967;51.756;10.174;2023-01-29T07:54:56;25.25;;;11.88;;
62010;SDS011;47967;51.756;10.174;2023-01-29T07:58:58;24.95;;;11.65;;
62010;SDS011;47967;51.756;10.174;2023-01-29T08:03:03;22.60;;;11.48;;
62010;SDS011;47967;51.756;10.174;2023-01-29T08:07:06;26.50;;;12.20;;
62010;SDS011;47967;51.756;10.174;2023-01-29T08:11:09;26.52;;;11.35;;
62010;SDS011;47967;51.756;10.174;2023-01-29T08:15:12;23.77;;;10.77;;
62010;SDS011;47967;51.756;10.174;2023-01-29T08:19:16;20.83;;;10.13;;
62010;SDS011;47967;51.756;10.174;2023-01-29T08:23:18;23.67;;;12.02;;
62010;SDS011;47967;51.756;10.174;2023-01-29T08:27:21;23.45;;;11.63;;
62010;SDS011;47967;51.756;10.174;2023-01-29T08:31:23;24.30;;;11.83;;
62010;SDS011;47967;51.756;10.174;2023-01-29T08:35:27;24.10;;;11.15;;
62010;SDS011;47967;51.756;10.174;2023-01-29T08:39:30;24.60;;;11.60;;
62010;SDS011;47967;51.756;10.174;2023-01-29T08:43:34;21.13;;;10.75;;
62010;SDS011;47967;51.756;10.174;2023-01-29T08:47:43;24.05;;;12.07;;
62010;SDS011;47967;51.756;10.174;2023-01-29T08:51:47;25.73;;;12.38;;
62010;SDS011;47967;51.756;10.174;2023-01-29T08:55:51;21.30;;;11.95;;
62010;SDS011;47967;51.756;10.174;2023-01-29T08:59:55;25.83;;;12.02;;
62010;SDS011;47967;51.756;10.174;2023-01-29T09:03:57;22.60;;;12.03;;
62010;SDS011;47967;51.756;10.174;2023-01-29T09:08:01;22.20;;;11.53;;
62010;SDS011;47967;51.756;10.174;2023-01-29T09:12:05;21.45;;;11.23;;
62010;SDS011;47967;51.756;10.174;2023-01-29T09:16:08;22.10;;;11.05;;
62010;SDS011;47967;51.756;10.174;2023-01-29T09:20:11;23.48;;;11.40;;
62010;SDS011;47967;51.756;10.174;2023-01-29T09:24:15;21.23;;;10.48;;
62010;SDS011;47967;51.756;10.174;2023-01-29T09:28:17;28.75;;;11.45;;
62010;SDS011;47967;51.756;10.174;2023-01-29T09:32:20;24.60;;;10.60;;
62010;SDS011;47967;51.756;10.174;2023-01-29T09:36:42;20.23;;;11.00;;
62010;SDS011;47967;51.756;10.174;2023-01-29T09:40:48;23.07;;;10.97;;
62010;SDS011;47967;51.756;10.174;2023-01-29T09:44:59;23.80;;;11.27;;
62010;SDS011;47967;51.756;10.174;2023-01-29T09:49:08;20.40;;;10.50;;
62010;SDS011;47967;51.756;10.174;2023-01-29T09:53:17;23.45;;;11.80;;
62010;SDS011;47967;51.756;10.174;2023-01-29T09:57:26;23.90;;;11.88;;
62010;SDS011;47967;51.756;10.174;2023-01-29T10:01:35;22.08;;;11.23;;
62010;SDS011;47967;51.756;10.174;2023-01-29T10:05:54;20.63;;;10.50;;
62010;SDS011;47967;51.756;10.174;2023-01-29T10:10:17;21.70;;;10.75;;
62010;SDS011;47967;51.756;10.174;2023-01-29T10:14:31;20.17;;;9.68;;
62010;SDS011;47967;51.756;10.174;2023-01-29T10:18:51;20.95;;;10.20;;
62010;SDS011;47967;51.756;10.174;2023-01-29T10:23:15;25.20;;;10.57;;
62010;SDS011;47967;51.756;10.174;2023-01-29T10:27:24;29.42;;;13.02;;
62010;SDS011;47967;51.756;10.174;2023-01-29T10:31:35;61.95;;;15.65;;
62010;SDS011;47967;51.756;10.174;2023-01-29T10:35:41;49.15;;;13.02;;
62010;SDS011;47967;51.756;10.174;2023-01-29T10:39:49;21.92;;;9.23;;
62010;SDS011;47967;51.756;10.174;2023-01-29T10:43:56;24.45;;;10.02;;
62010;SDS011;47967;51.756;10.174;2023-01-29T10:52:44;16.58;;;9.30;;
62010;SDS011;47967;51.756;10.174;2023-01-29T10:57:00;18.92;;;8.80;;
62010;SDS011;47967;51.756;10.174;2023-01-29T11:01:14;18.88;;;8.38;;
62010;SDS011;47967;51.756;10.174;2023-01-29T11:05:23;19.67;;;9.98;;
62010;SDS011;47967;51.756;10.174;2023-01-29T11:09:33;19.08;;;9.30;;
62010;SDS011;47967;51.756;10.174;2023-01-29T11:13:41;18.42;;;9.60;;
62010;SDS011;47967;51.756;10.174;2023-01-29T11:18:05;18.65;;;9.48;;
62010;SDS011;47967;51.756;10.174;2023-01-29T11:22:13;17.83;;;9.77;;
62010;SDS011;47967;51.756;10.174;2023-01-29T11:26:18;18.23;;;9.30;;
62010;SDS011;47967;51.756;10.174;2023-01-29T11:30:24;16.98;;;9.02;;
62010;SDS011;47967;51.756;10.174;2023-01-29T11:34:28;19.88;;;9.85;;
62010;SDS011;47967;51.756;10.174;2023-01-29T11:38:33;19.23;;;9.30;;
62010;SDS011;47967;51.756;10.174;2023-01-29T11:42:36;18.90;;;8.88;;
62010;SDS011;47967;51.756;10.174;2023-01-29T11:46:38;20.63;;;9.37;;
62010;SDS011;47967;51.756;10.174;2023-01-29T11:50:41;19.03;;;8.90;;
62010;SDS011;47967;51.756;10.174;2023-01-29T11:54:46;19.17;;;9.23;;
62010;SDS011;47967;51.756;10.174;2023-01-29T11:58:52;16.95;;;8.75;;
62010;SDS011;47967;51.756;10.174;2023-01-29T12:02:59;18.42;;;9.50;;
62010;SDS011;47967;51.756;10.174;2023-01-29T12:07:10;16.70;;;8.13;;
62010;SDS011;47967;51.756;10.174;2023-01-29T12:11:22;17.88;;;8.52;;
62010;SDS011;47967;51.756;10.174;2023-01-29T12:15:26;18.55;;;9.13;;
62010;SDS011;47967;51.756;10.174;2023-01-29T12:19:30;16.33;;;8.47;;
62010;SDS011;47967;51.756;10.174;2023-01-29T12:23:40;18.48;;;9.30;;
62010;SDS011;47967;51.756;10.174;2023-01-29T12:27:52;17.55;;;8.80;;
62010;SDS011;47967;51.756;10.174;2023-01-29T12:32:02;15.82;;;8.40;;
62010;SDS011;47967;51.756;10.174;2023-01-29T12:36:12;20.52;;;8.82;;
62010;SDS011;47967;51.756;10.174;2023-01-29T12:40:19;19.13;;;9.13;;
62010;SDS011;47967;51.756;10.174;2023-01-29T12:44:29;17.70;;;8.65;;
62010;SDS011;47967;51.756;10.174;2023-01-29T12:48:35;21.77;;;8.45;;
62010;SDS011;47967;51.756;10.174;2023-01-29T12:52:43;18.83;;;8.15;;
62010;SDS011;47967;51.756;10.174;2023-01-29T12:56:51;14.40;;;8.10;;
62010;SDS011;47967;51.756;10.174;2023-01-29T13:01:02;16.05;;;8.35;;
62010;SDS011;47967;51.756;10.174;2023-01-29T13:05:13;16.50;;;8.20;;
62010;SDS011;47967;51.756;10.174;2023-01-29T13:09:23;18.42;;;8.10;;
62010;SDS011;47967;51.756;10.174;2023-01-29T13:13:29;16.33;;;8.00;;
62010;SDS011;47967;51.756;10.174;2023-01-29T13:17:35;19.10;;;7.65;;
62010;SDS011;47967;51.756;10.174;2023-01-29T13:21:42;13.40;;;7.53;;
62010;SDS011;47967;51.756;10.174;2023-01-29T13:25:48;12.80;;;6.50;;
62010;SDS011;47967;51.756;10.174;2023-01-29T13:29:53;13.00;;;6.80;;
62010;SDS011;47967;51.756;10.174;2023-01-29T13:34:00;12.15;;;6.28;;
62010;SDS011;47967;51.756;10.174;2023-01-29T13:38:15;12.95;;;5.80;;
62010;SDS011;47967;51.756;10.174;2023-01-29T13:42:32;12.48;;;6.22;;
62010;SDS011;47967;51.756;10.174;2023-01-29T13:46:39;11.93;;;6.45;;
62010;SDS011;47967;51.756;10.174;2023-01-29T13:50:44;10.63;;;6.15;;
62010;SDS011;47967;51.756;10.174;2023-01-29T13:54:49;11.52;;;6.03;;
62010;SDS011;47967;51.756;10.174;2023-01-29T13:58:54;11.77;;;6.13;;
62010;SDS011;47967;51.756;10.174;2023-01-29T14:08:08;10.82;;;6.00;;
62010;SDS011;47967;51.756;10.174;2023-01-29T14:16:42;13.07;;;6.05;;
62010;SDS011;47967;51.756;10.174;2023-01-29T14:20:53;10.73;;;5.87;;
62010;SDS011;47967;51.756;10.174;2023-01-29T14:25:00;13.10;;;6.03;;
62010;SDS011;47967;51.756;10.174;2023-01-29T14:29:06;12.45;;;5.63;;
62010;SDS011;47967;51.756;10.174;2023-01-29T14:33:34;14.00;;;6.55;;
62010;SDS011;47967;51.756;10.174;2023-01-29T14:37:43;11.43;;;5.90;;
62010;SDS011;47967;51.756;10.174;2023-01-29T14:41:50;11.95;;;6.00;;
62010;SDS011;47967;51.756;10.174;2023-01-29T14:45:53;9.85;;;5.70;;
62010;SDS011;47967;51.756;10.174;2023-01-29T14:49:56;11.70;;;5.97;;
62010;SDS011;47967;51.756;10.174;2023-01-29T14:54:00;11.18;;;6.10;;
62010;SDS011;47967;51.756;10.174;2023-01-29T14:58:09;10.65;;;6.03;;
62010;SDS011;47967;51.756;10.174;2023-01-29T15:02:17;10.00;;;5.97;;
62010;SDS011;47967;51.756;10.174;2023-01-29T15:06:27;13.30;;;6.45;;
62010;SDS011;47967;51.756;10.174;2023-01-29T15:10:36;15.52;;;7.00;;
62010;SDS011;47967;51.756;10.174;2023-01-29T15:14:45;12.57;;;6.28;;
62010;SDS011;47967;51.756;10.174;2023-01-29T15:18:53;10.63;;;6.32;;
62010;SDS011;47967;51.756;10.174;2023-01-29T15:23:23;14.93;;;6.97;;
62010;SDS011;47967;51.756;10.174;2023-01-29T15:27:27;13.80;;;6.38;;
62010;SDS011;47967;51.756;10.174;2023-01-29T15:31:31;10.48;;;6.20;;
62010;SDS011;47967;51.756;10.174;2023-01-29T15:35:36;13.15;;;6.60;;
62010;SDS011;47967;51.756;10.174;2023-01-29T15:39:41;11.18;;;5.97;;
62010;SDS011;47967;51.756;10.174;2023-01-29T15:43:44;11.70;;;6.47;;
62010;SDS011;47967;51.756;10.174;2023-01-29T15:47:49;14.18;;;6.35;;
62010;SDS011;47967;51.756;10.174;2023-01-29T15:51:54;11.93;;;6.38;;
62010;SDS011;47967;51.756;10.174;2023-01-29T15:55:58;9.77;;;5.57;;
62010;SDS011;47967;51.756;10.174;2023-01-29T16:00:03;13.00;;;6.40;;
62010;SDS011;47967;51.756;10.174;2023-01-29T16:04:16;13.35;;;7.30;;
62010;SDS011;47967;51.756;10.174;2023-01-29T16:08:23;11.63;;;6.38;;
62010;SDS011;47967;51.756;10.174;2023-01-29T16:12:27;10.90;;;6.50;;
62010;SDS011;47967;51.756;10.174;2023-01-29T16:16:30;14.07;;;6.80;;
62010;SDS011;47967;51.756;10.174;2023-01-29T16:20:38;11.60;;;6.05;;
62010;SDS011;47967;51.756;10.174;2023-01-29T16:24:44;13.30;;;6.30;;
62010;SDS011;47967;51.756;10.174;2023-01-29T16:28:48;13.75;;;7.07;;
62010;SDS011;47967;51.756;10.174;2023-01-29T16:32:50;12.75;;;6.57;;
62010;SDS011;47967;51.756;10.174;2023-01-29T16:36:54;11.90;;;6.70;;
62010;SDS011;47967;51.756;10.174;2023-01-29T16:41:06;12.13;;;6.15;;
62010;SDS011;47967;51.756;10.174;2023-01-29T16:49:41;10.85;;;6.05;;
62010;SDS011;47967;51.756;10.174;2023-01-29T16:53:55;14.57;;;6.65;;
62010;SDS011;47967;51.756;10.174;2023-01-29T16:58:02;12.38;;;7.07;;
62010;SDS011;47967;51.756;10.174;2023-01-29T17:02:14;15.10;;;6.70;;
62010;SDS011;47967;51.756;10.174;2023-01-29T17:06:24;13.48;;;7.07;;
62010;SDS011;47967;51.756;10.174;2023-01-29T17:10:29;12.02;;;6.45;;
62010;SDS011;47967;51.756;10.174;2023-01-29T17:14:32;12.88;;;6.72;;
62010;SDS011;47967;51.756;10.174;2023-01-29T17:18:36;13.23;;;7.85;;
62010;SDS011;47967;51.756;10.174;2023-01-29T17:22:39;13.45;;;7.13;;
62010;SDS011;47967;51.756;10.174;2023-01-29T17:26:42;13.47;;;7.37;;
62010;SDS011;47967;51.756;10.174;2023-01-29T17:30:45;14.80;;;7.38;;
62010;SDS011;47967;51.756;10.174;2023-01-29T17:35:05;16.08;;;7.60;;
62010;SDS011;47967;51.756;10.174;2023-01-29T17:39:10;16.00;;;7.88;;
62010;SDS011;47967;51.756;10.174;2023-01-29T17:43:18;11.65;;;6.78;;
62010;SDS011;47967;51.756;10.174;2023-01-29T17:47:21;13.90;;;7.13;;
62010;SDS011;47967;51.756;10.174;2023-01-29T17:51:23;12.73;;;6.80;;
62010;SDS011;47967;51.756;10.174;2023-01-29T17:55:26;14.63;;;7.17;;
62010;SDS011;47967;51.756;10.174;2023-01-29T17:59:31;13.85;;;7.07;;
62010;SDS011;47967;51.756;10.174;2023-01-29T18:03:34;14.98;;;7.78;;
62010;SDS011;47967;51.756;10.174;2023-01-29T18:07:37;10.93;;;5.97;;
62010;SDS011;47967;51.756;10.174;2023-01-29T18:11:41;14.45;;;7.65;;
62010;SDS011;47967;51.756;10.174;2023-01-29T18:15:45;17.60;;;8.30;;
62010;SDS011;47967;51.756;10.174;2023-01-29T18:19:48;15.43;;;7.53;;
62010;SDS011;47967;51.756;10.174;2023-01-29T18:23:50;16.00;;;8.10;;
62010;SDS011;47967;51.756;10.174;2023-01-29T18:27:53;14.23;;;7.50;;
62010;SDS011;47967;51.756;10.174;2023-01-29T18:31:57;15.20;;;7.97;;
62010;SDS011;47967;51.756;10.174;2023-01-29T18:35:59;14.68;;;6.75;;
62010;SDS011;47967;51.756;10.174;2023-01-29T18:40:05;17.50;;;8.43;;
62010;SDS011;47967;51.756;10.174;2023-01-29T18:44:08;14.82;;;7.63;;
62010;SDS011;47967;51.756;10.174;2023-01-29T18:48:12;16.07;;;7.93;;
62010;SDS011;47967;51.756;10.174;2023-01-29T18:52:15;14.95;;;7.55;;
62010;SDS011;47967;51.756;10.174;2023-01-29T18:56:18;17.77;;;9.20;;
62010;SDS011;47967;51.756;10.174;2023-01-29T19:00:21;16.25;;;7.88;;
62010;SDS011;47967;51.756;10.174;2023-01-29T19:04:25;18.33;;;9.35;;
62010;SDS011;47967;51.756;10.174;2023-01-29T19:08:27;20.20;;;9.20;;
62010;SDS011;47967;51.756;10.174;2023-01-29T19:12:30;21.80;;;9.53;;
62010;SDS011;47967;51.756;10.174;2023-01-29T19:16:33;18.85;;;8.82;;
62010;SDS011;47967;51.756;10.174;2023-01-29T19:20:39;20.33;;;9.40;;
62010;SDS011;47967;51.756;10.174;2023-01-29T19:24:42;13.48;;;6.40;;
62010;SDS011;47967;51.756;10.174;2023-01-29T19:32:48;18.27;;;9.35;;
62010;SDS011;47967;51.756;10.174;2023-01-29T19:36:52;18.73;;;9.23;;
62010;SDS011;47967;51.756;10.174;2023-01-29T19:40:54;19.90;;;9.13;;
62010;SDS011;47967;51.756;10.174;2023-01-29T19:44:57;18.80;;;9.27;;
62010;SDS011;47967;51.756;10.174;2023-01-29T19:48:59;19.90;;;8.73;;
62010;SDS011;47967;51.756;10.174;2023-01-29T19:53:05;19.10;;;9.25;;
62010;SDS011;47967;51.756;10.174;2023-01-29T19:57:07;15.00;;;7.07;;
62010;SDS011;47967;51.756;10.174;2023-01-29T20:01:12;17.47;;;8.63;;
62010;SDS011;47967;51.756;10.174;2023-01-29T20:05:15;18.95;;;9.38;;
62010;SDS011;47967;51.756;10.174;2023-01-29T20:13:22;11.68;;;5.63;;
62010;SDS011;47967;51.756;10.174;2023-01-29T20:17:25;19.27;;;9.45;;
62010;SDS011;47967;51.756;10.174;2023-01-29T20:21:28;18.67;;;8.20;;
62010;SDS011;47967;51.756;10.174;2023-01-29T20:25:32;19.33;;;9.77;;
62010;SDS011;47967;51.756;10.174;2023-01-29T20:29:35;20.33;;;10.02;;
62010;SDS011;47967;51.756;10.174;2023-01-29T20:33:38;18.15;;;8.93;;
62010;SDS011;47967;51.756;10.174;2023-01-29T20:37:41;20.67;;;9.30;;
62010;SDS011;47967;51.756;10.174;2023-01-29T20:41:45;17.77;;;8.68;;
62010;SDS011;47967;51.756;10.174;2023-01-29T20:45:48;19.20;;;8.85;;
62010;SDS011;47967;51.756;10.174;2023-01-29T20:49:50;16.87;;;8.87;;
62010;SDS011;47967;51.756;10.174;2023-01-29T20:53:53;17.37;;;8.13;;
62010;SDS011;47967;51.756;10.174;2023-01-29T20:57:57;11.50;;;5.65;;
62010;SDS011;47967;51.756;10.174;2023-01-29T21:02:08;17.10;;;7.47;;
62010;SDS011;47967;51.756;10.174;2023-01-29T21:06:12;18.10;;;8.90;;
62010;SDS011;47967;51.756;10.174;2023-01-29T21:10:15;18.45;;;9.13;;
62010;SDS011;47967;51.756;10.174;2023-01-29T21:14:20;18.48;;;8.35;;
62010;SDS011;47967;51.756;10.174;2023-01-29T21:18:22;17.70;;;7.65;;
62010;SDS011;47967;51.756;10.174;2023-01-29T21:26:28;21.83;;;8.75;;
62010;SDS011;47967;51.756;10.174;2023-01-29T21:30:32;17.97;;;8.43;;
62010;SDS011;47967;51.756;10.174;2023-01-29T21:34:35;14.23;;;7.13;;
62010;SDS011;47967;51.756;10.174;2023-01-29T21:38:37;18.37;;;8.03;;
62010;SDS011;47967;51.756;10.174;2023-01-29T21:42:40;19.67;;;9.57;;
62010;SDS011;47967;51.756;10.174;2023-01-29T21:47:02;15.35;;;7.60;;
62010;SDS011;47967;51.756;10.174;2023-01-29T21:51:12;18.48;;;8.48;;
62010;SDS011;47967;51.756;10.174;2023-01-29T21:55:16;16.63;;;7.70;;
62010;SDS011;47967;51.756;10.174;2023-01-29T21:59:19;15.90;;;7.60;;
